Washington, ME (04574)

8:32 PM EDT on July 23, 2016 (GMT -0400)
Jefferson Village | | Change Station

Elev 95 ft 44.21 °N, 69.46 °W | Updated 3 seconds ago

Clear
Clear
71.4 °F
Feels Like 71.4 °F
N
4.0
Wind Variable Wind from West
Gusts 4.9 mph

Today
High -- | Low -- °F
--% Chance of Precip.
Yesterday
High -- | Low -- °F
Precip. -- in
Pressure 29.74 in
Visibility 10.0 miles
Clouds Clear
Dew Point 68 °F
Humidity 90%
Rainfall 0.33 in
Snow Depth Not available.
5:15 AM 8:11 PM
Waning Gibbous, 81% visible
METAR KAUG 232353Z AUTO 31007KT 10SM CLR 21/17 A2974 RMK AO2 SLP069 60002 T02060172 10289 20206 58001
Pressure 29.74 in
Visibility 10.0 miles
Clouds Clear
Dew Point 68 °F
Humidity 90%
Rainfall 0.33 in
Snow Depth Not available.
5:15 AM 8:11 PM
Waning Gibbous, 81% visible
METAR KAUG 232353Z AUTO 31007KT 10SM CLR 21/17 A2974 RMK AO2 SLP069 60002 T02060172 10289 20206 58001

10-Day Weather Forecast

Almanac

Astronomy

Jul. 23, 2016 Rise Set
Actual Time
Civil Twilight
Nautical Twilight
Astronomical Twilight
Moon
Length of Visible Light
Length of Day
Tomorrow will be .
, % of the Moon is Illuminated

Today's Extremes

State Highs State Lows

Community

WunderPhotos

Upload Photos

1,926,982 photos uploaded!

WunderBlog® & News

Nearby

Air Quality

  Air Quality AQ Index Pollutant
Not available.

Snow Depth

Station Depth Elevation

Earthquake Activity

City Distance Mag. Time & Date
Minimum magnitude displayed is 2.5.

Coastal Water Temperatures

Place Temperature

Stations

Nearby Weather Stations

Station Location Temp. Windchill Dew Point Humidity Wind Precip. Elev Updated Type
                   

Watches & Warnings

There are currently no watches in effect.